sensor_id;sensor_type;location;lat;lon;timestamp;pressure;altitude;pressure_sealevel;temperature;humidity
48352;BME280;34163;49.314;6.752;2024-03-06T06:11:18;99991.88;;;7.22;100.00
48352;BME280;34163;49.314;6.752;2024-03-06T06:13:44;99990.13;;;7.21;100.00
48352;BME280;34163;49.314;6.752;2024-03-06T06:16:09;99999.81;;;7.20;100.00
48352;BME280;34163;49.314;6.752;2024-03-06T06:18:34;99994.50;;;7.22;100.00
48352;BME280;34163;49.314;6.752;2024-03-06T06:21:00;100004.19;;;7.21;100.00
48352;BME280;34163;49.314;6.752;2024-03-06T06:23:25;100006.78;;;7.23;100.00
48352;BME280;34163;49.314;6.752;2024-03-06T06:25:51;100005.94;;;7.21;100.00
48352;BME280;34163;49.314;6.752;2024-03-06T06:28:16;100008.66;;;7.18;100.00
48352;BME280;34163;49.314;6.752;2024-03-06T06:30:41;100010.41;;;7.19;100.00
48352;BME280;34163;49.314;6.752;2024-03-06T06:33:10;100014.75;;;7.21;100.00
48352;BME280;34163;49.314;6.752;2024-03-06T06:35:35;100008.63;;;7.19;100.00
48352;BME280;34163;49.314;6.752;2024-03-06T06:38:01;100011.09;;;7.25;100.00
48352;BME280;34163;49.314;6.752;2024-03-06T06:40:26;100014.78;;;7.20;100.00
48352;BME280;34163;49.314;6.752;2024-03-06T06:42:53;100019.97;;;7.23;100.00
48352;BME280;34163;49.314;6.752;2024-03-06T06:45:18;100025.16;;;7.26;100.00
48352;BME280;34163;49.314;6.752;2024-03-06T06:47:44;100027.00;;;7.22;100.00
48352;BME280;34163;49.314;6.752;2024-03-06T06:50:10;100028.75;;;7.23;100.00
48352;BME280;34163;49.314;6.752;2024-03-06T06:52:36;100027.88;;;7.23;100.00
48352;BME280;34163;49.314;6.752;2024-03-06T06:55:02;100022.56;;;7.24;100.00
48352;BME280;34163;49.314;6.752;2024-03-06T06:57:27;100026.91;;;7.25;100.00
48352;BME280;34163;49.314;6.752;2024-03-06T06:59:52;100032.16;;;7.27;100.00
48352;BME280;34163;49.314;6.752;2024-03-06T07:02:18;100029.47;;;7.28;100.00
48352;BME280;34163;49.314;6.752;2024-03-06T07:04:43;100028.53;;;7.31;100.00
48352;BME280;34163;49.314;6.752;2024-03-06T07:07:08;100028.53;;;7.31;100.00
48352;BME280;34163;49.314;6.752;2024-03-06T07:09:34;100032.06;;;7.30;100.00
48352;BME280;34163;49.314;6.752;2024-03-06T07:11:59;100037.44;;;7.27;100.00
48352;BME280;34163;49.314;6.752;2024-03-06T07:14:25;100049.72;;;7.28;100.00
48352;BME280;34163;49.314;6.752;2024-03-06T07:16:50;100044.44;;;7.28;100.00
48352;BME280;34163;49.314;6.752;2024-03-06T07:19:15;100054.97;;;7.28;100.00
48352;BME280;34163;49.314;6.752;2024-03-06T07:21:41;100054.97;;;7.28;100.00
48352;BME280;34163;49.314;6.752;2024-03-06T07:24:07;100061.09;;;7.28;100.00
48352;BME280;34163;49.314;6.752;2024-03-06T07:26:32;100048.75;;;7.31;100.00
48352;BME280;34163;49.314;6.752;2024-03-06T07:28:58;100054.94;;;7.30;100.00
48352;BME280;34163;49.314;6.752;2024-03-06T07:31:24;100054.03;;;7.31;100.00
48352;BME280;34163;49.314;6.752;2024-03-06T07:33:49;100053.97;;;7.32;100.00
48352;BME280;34163;49.314;6.752;2024-03-06T07:36:14;100056.59;;;7.34;100.00
48352;BME280;34163;49.314;6.752;2024-03-06T07:38:41;100060.09;;;7.34;100.00
48352;BME280;34163;49.314;6.752;2024-03-06T07:41:06;100061.81;;;7.35;100.00
48352;BME280;34163;49.314;6.752;2024-03-06T07:43:31;100067.09;;;7.35;100.00
48352;BME280;34163;49.314;6.752;2024-03-06T07:45:57;100069.69;;;7.37;100.00
48352;BME280;34163;49.314;6.752;2024-03-06T07:48:22;100070.53;;;7.39;100.00
48352;BME280;34163;49.314;6.752;2024-03-06T07:50:47;100073.94;;;7.42;100.00
48352;BME280;34163;49.314;6.752;2024-03-06T07:53:12;100066.94;;;7.41;100.00
48352;BME280;34163;49.314;6.752;2024-03-06T07:55:38;100073.00;;;7.45;100.00
48352;BME280;34163;49.314;6.752;2024-03-06T07:58:04;100070.25;;;7.50;100.00
48352;BME280;34163;49.314;6.752;2024-03-06T08:00:29;100073.81;;;7.49;100.00
48352;BME280;34163;49.314;6.752;2024-03-06T09:01:19;100131.03;;;7.79;100.00
48352;BME280;34163;49.314;6.752;2024-03-06T09:03:44;100124.78;;;7.84;100.00
48352;BME280;34163;49.314;6.752;2024-03-06T09:06:10;100122.06;;;7.87;100.00
48352;BME280;34163;49.314;6.752;2024-03-06T09:08:35;100122.19;;;7.82;100.00
48352;BME280;34163;49.314;6.752;2024-03-06T09:11:01;100123.94;;;7.81;100.00
48352;BME280;34163;49.314;6.752;2024-03-06T09:13:39;100123.84;;;7.85;100.00
48352;BME280;34163;49.314;6.752;2024-03-06T09:16:30;100119.50;;;7.84;100.00
48352;BME280;34163;49.314;6.752;2024-03-06T09:18:56;100118.56;;;7.85;100.00
48352;BME280;34163;49.314;6.752;2024-03-06T09:21:21;100106.22;;;7.87;100.00
48352;BME280;34163;49.314;6.752;2024-03-06T09:23:47;100109.69;;;7.89;100.00
48352;BME280;34163;49.314;6.752;2024-03-06T09:26:16;100107.78;;;7.94;100.00
48352;BME280;34163;49.314;6.752;2024-03-06T09:28:41;100110.50;;;7.91;100.00
48352;BME280;34163;49.314;6.752;2024-03-06T09:31:06;100100.75;;;7.93;100.00
48352;BME280;34163;49.314;6.752;2024-03-06T09:33:32;100105.22;;;7.91;100.00
48352;BME280;34163;49.314;6.752;2024-03-06T09:35:57;100112.09;;;7.98;100.00
48352;BME280;34163;49.314;6.752;2024-03-06T09:38:23;100120.00;;;7.98;100.00
48352;BME280;34163;49.314;6.752;2024-03-06T09:40:48;100111.28;;;7.94;100.00
48352;BME280;34163;49.314;6.752;2024-03-06T09:43:16;100122.13;;;8.16;100.00
48352;BME280;34163;49.314;6.752;2024-03-06T09:45:41;100109.28;;;8.67;100.00
48352;BME280;34163;49.314;6.752;2024-03-06T09:48:08;100112.06;;;9.19;100.00
48352;BME280;34163;49.314;6.752;2024-03-06T09:50:33;100118.63;;;10.12;100.00
48352;BME280;34163;49.314;6.752;2024-03-06T09:53:02;100103.16;;;11.40;100.00
48352;BME280;34163;49.314;6.752;2024-03-06T09:55:30;100106.00;;;11.78;100.00
48352;BME280;34163;49.314;6.752;2024-03-06T09:57:56;100111.84;;;11.87;100.00
48352;BME280;34163;49.314;6.752;2024-03-06T10:00:21;100117.09;;;10.56;100.00
48352;BME280;34163;49.314;6.752;2024-03-06T10:03:20;100121.88;;;9.70;100.00
48352;BME280;34163;49.314;6.752;2024-03-06T10:05:38;100129.44;;;9.27;100.00
48352;BME280;34163;49.314;6.752;2024-03-06T10:08:04;100128.34;;;9.06;100.00
48352;BME280;34163;49.314;6.752;2024-03-06T10:10:29;100129.56;;;8.95;100.00
48352;BME280;34163;49.314;6.752;2024-03-06T10:12:55;100126.41;;;8.83;100.00
48352;BME280;34163;49.314;6.752;2024-03-06T10:15:22;100132.69;;;8.79;100.00
48352;BME280;34163;49.314;6.752;2024-03-06T10:17:47;100133.88;;;8.69;100.00
48352;BME280;34163;49.314;6.752;2024-03-06T10:20:23;100136.56;;;8.67;100.00
48352;BME280;34163;49.314;6.752;2024-03-06T10:22:52;100145.53;;;8.62;100.00
48352;BME280;34163;49.314;6.752;2024-03-06T10:25:19;100139.41;;;8.60;100.00
48352;BME280;34163;49.314;6.752;2024-03-06T10:27:45;100139.50;;;8.57;100.00
48352;BME280;34163;49.314;6.752;2024-03-06T10:30:10;100137.00;;;8.52;100.00
48352;BME280;34163;49.314;6.752;2024-03-06T10:32:38;100137.84;;;8.54;100.00
48352;BME280;34163;49.314;6.752;2024-03-06T10:35:04;100135.38;;;8.48;100.00
48352;BME280;34163;49.314;6.752;2024-03-06T10:37:31;100136.13;;;8.51;100.00
48352;BME280;34163;49.314;6.752;2024-03-06T10:39:57;100132.72;;;8.48;100.00
48352;BME280;34163;49.314;6.752;2024-03-06T10:42:23;100137.06;;;8.50;100.00
48352;BME280;34163;49.314;6.752;2024-03-06T10:44:51;100131.88;;;8.47;100.00
48352;BME280;34163;49.314;6.752;2024-03-06T10:47:17;100128.34;;;8.47;100.00
48352;BME280;34163;49.314;6.752;2024-03-06T10:49:43;100135.31;;;8.49;100.00
48352;BME280;34163;49.314;6.752;2024-03-06T10:52:10;100135.41;;;8.46;100.00
48352;BME280;34163;49.314;6.752;2024-03-06T10:54:35;100139.69;;;8.50;100.00
48352;BME280;34163;49.314;6.752;2024-03-06T10:57:03;100139.78;;;8.47;100.00
48352;BME280;34163;49.314;6.752;2024-03-06T10:59:29;100133.59;;;8.48;100.00
48352;BME280;34163;49.314;6.752;2024-03-06T11:01:55;100135.38;;;8.48;100.00
48352;BME280;34163;49.314;6.752;2024-03-06T11:04:21;100144.16;;;8.48;100.00
48352;BME280;34163;49.314;6.752;2024-03-06T11:06:47;100132.72;;;8.48;100.00
48352;BME280;34163;49.314;6.752;2024-03-06T11:09:13;100143.41;;;8.43;100.00
48352;BME280;34163;49.314;6.752;2024-03-06T11:11:47;100141.53;;;8.47;100.00
48352;BME280;34163;49.314;6.752;2024-03-06T11:14:12;100146.06;;;8.43;100.00
48352;BME280;34163;49.314;6.752;2024-03-06T11:16:56;100138.94;;;8.45;100.00
48352;BME280;34163;49.314;6.752;2024-03-06T11:19:22;100142.53;;;8.43;100.00
48352;BME280;34163;49.314;6.752;2024-03-06T11:21:47;100139.88;;;8.44;100.00
48352;BME280;34163;49.314;6.752;2024-03-06T11:24:14;100142.44;;;8.47;100.00
48352;BME280;34163;49.314;6.752;2024-03-06T11:29:13;100141.53;;;8.47;100.00
48352;BME280;34163;49.314;6.752;2024-03-06T11:31:45;100133.66;;;8.45;100.00
48352;BME280;34163;49.314;6.752;2024-03-06T11:34:23;100133.63;;;8.47;100.00
48352;BME280;34163;49.314;6.752;2024-03-06T11:36:53;100138.88;;;8.48;100.00
48352;BME280;34163;49.314;6.752;2024-03-06T11:39:18;100138.81;;;8.50;100.00
48352;BME280;34163;49.314;6.752;2024-03-06T11:41:48;100134.50;;;8.47;100.00
48352;BME280;34163;49.314;6.752;2024-03-06T11:44:15;100125.66;;;8.48;100.00
48352;BME280;34163;49.314;6.752;2024-03-06T11:46:59;100131.88;;;8.47;100.00
48352;BME280;34163;49.314;6.752;2024-03-06T11:49:28;100135.28;;;8.51;100.00
48352;BME280;34163;49.314;6.752;2024-03-06T11:51:58;100130.84;;;8.51;100.00
48352;BME280;34163;49.314;6.752;2024-03-06T11:54:24;100130.03;;;8.49;100.00
48352;BME280;34163;49.314;6.752;2024-03-06T11:56:52;100137.97;;;8.49;100.00
48352;BME280;34163;49.314;6.752;2024-03-06T11:59:21;100134.41;;;8.50;100.00
48352;BME280;34163;49.314;6.752;2024-03-06T12:01:47;100130.81;;;8.53;100.00
48352;BME280;34163;49.314;6.752;2024-03-06T12:04:13;100130.00;;;8.51;100.00
48352;BME280;34163;49.314;6.752;2024-03-06T12:06:38;100139.59;;;8.53;100.00
48352;BME280;34163;49.314;6.752;2024-03-06T12:09:04;100141.41;;;8.51;100.00
48352;BME280;34163;49.314;6.752;2024-03-06T12:11:29;100131.66;;;8.53;100.00
48352;BME280;34163;49.314;6.752;2024-03-06T12:13:56;100131.66;;;8.53;100.00
48352;BME280;34163;49.314;6.752;2024-03-06T12:16:21;100127.31;;;8.52;100.00
48352;BME280;34163;49.314;6.752;2024-03-06T12:18:46;100133.44;;;8.53;100.00
48352;BME280;34163;49.314;6.752;2024-03-06T12:21:18;100137.88;;;8.52;100.00
48352;BME280;34163;49.314;6.752;2024-03-06T12:23:44;100133.41;;;8.54;100.00
48352;BME280;34163;49.314;6.752;2024-03-06T12:26:09;100130.81;;;8.53;100.00
48352;BME280;34163;49.314;6.752;2024-03-06T12:28:39;100134.22;;;8.57;100.00
48352;BME280;34163;49.314;6.752;2024-03-06T12:31:05;100128.94;;;8.57;100.00
48352;BME280;34163;49.314;6.752;2024-03-06T12:33:31;100128.94;;;8.57;100.00
48352;BME280;34163;49.314;6.752;2024-03-06T12:36:06;100123.59;;;8.58;100.00
48352;BME280;34163;49.314;6.752;2024-03-06T12:38:35;100125.41;;;8.58;100.00
48352;BME280;34163;49.314;6.752;2024-03-06T12:41:00;100127.13;;;8.59;100.00
48352;BME280;34163;49.314;6.752;2024-03-06T12:43:26;100122.72;;;8.59;100.00
48352;BME280;34163;49.314;6.752;2024-03-06T12:45:54;100120.94;;;8.60;100.00
48352;BME280;34163;49.314;6.752;2024-03-06T12:48:21;100122.72;;;8.59;100.00
48352;BME280;34163;49.314;6.752;2024-03-06T12:50:47;100116.56;;;8.59;100.00
48352;BME280;34163;49.314;6.752;2024-03-06T12:53:16;100121.84;;;8.59;100.00
48352;BME280;34163;49.314;6.752;2024-03-06T12:55:44;100117.44;;;8.59;100.00
48352;BME280;34163;49.314;6.752;2024-03-06T12:58:13;100119.13;;;8.62;100.00
48352;BME280;34163;49.314;6.752;2024-03-06T13:00:39;100114.69;;;8.62;100.00
48352;BME280;34163;49.314;6.752;2024-03-06T13:03:05;100107.59;;;8.64;100.00
48352;BME280;34163;49.314;6.752;2024-03-06T13:05:30;100112.00;;;8.64;100.00
48352;BME280;34163;49.314;6.752;2024-03-06T13:07:57;100108.34;;;8.68;100.00
48352;BME280;34163;49.314;6.752;2024-03-06T13:10:22;100106.72;;;8.64;100.00
48352;BME280;34163;49.314;6.752;2024-03-06T13:12:47;100105.81;;;8.65;100.00
48352;BME280;34163;49.314;6.752;2024-03-06T13:15:13;100106.69;;;8.65;100.00
48352;BME280;34163;49.314;6.752;2024-03-06T13:17:38;100107.59;;;8.64;100.00
48352;BME280;34163;49.314;6.752;2024-03-06T13:20:05;100105.81;;;8.65;100.00
48352;BME280;34163;49.314;6.752;2024-03-06T13:22:34;100104.91;;;8.66;100.00
48352;BME280;34163;49.314;6.752;2024-03-06T13:25:05;100100.53;;;8.65;100.00
48352;BME280;34163;49.314;6.752;2024-03-06T13:27:33;100096.97;;;8.66;100.00
48352;BME280;34163;49.314;6.752;2024-03-06T13:30:01;100096.97;;;8.66;100.00
48352;BME280;34163;49.314;6.752;2024-03-06T13:32:27;100097.03;;;8.64;100.00
48352;BME280;34163;49.314;6.752;2024-03-06T13:34:53;100096.97;;;8.66;100.00
48352;BME280;34163;49.314;6.752;2024-03-06T13:37:20;100105.78;;;8.66;100.00
48352;BME280;34163;49.314;6.752;2024-03-06T13:39:57;100093.53;;;8.64;100.00
48352;BME280;34163;49.314;6.752;2024-03-06T13:45:24;100100.59;;;8.63;100.00
48352;BME280;34163;49.314;6.752;2024-03-06T13:48:00;100101.41;;;8.65;100.00
48352;BME280;34163;49.314;6.752;2024-03-06T13:50:49;100103.19;;;8.65;100.00
48352;BME280;34163;49.314;6.752;2024-03-06T13:53:15;100102.25;;;8.66;100.00
48352;BME280;34163;49.314;6.752;2024-03-06T13:55:42;100111.97;;;8.65;100.00
48352;BME280;34163;49.314;6.752;2024-03-06T13:58:08;100114.53;;;8.68;100.00
48352;BME280;34163;49.314;6.752;2024-03-06T14:00:34;100111.84;;;8.70;100.00
48352;BME280;34163;49.314;6.752;2024-03-06T14:03:06;100111.88;;;8.68;100.00
48352;BME280;34163;49.314;6.752;2024-03-06T14:05:41;100110.09;;;8.69;100.00
48352;BME280;34163;49.314;6.752;2024-03-06T14:08:45;100106.59;;;8.68;100.00
48352;BME280;34163;49.314;6.752;2024-03-06T14:11:21;100112.69;;;8.70;100.00
48352;BME280;34163;49.314;6.752;2024-03-06T14:13:47;100108.31;;;8.69;100.00
48352;BME280;34163;49.314;6.752;2024-03-06T14:16:12;100110.94;;;8.69;100.00
48352;BME280;34163;49.314;6.752;2024-03-06T14:18:37;100114.38;;;8.73;100.00
48352;BME280;34163;49.314;6.752;2024-03-06T14:21:03;100115.25;;;8.73;100.00
48352;BME280;34163;49.314;6.752;2024-03-06T14:23:28;100117.84;;;8.75;100.00
48352;BME280;34163;49.314;6.752;2024-03-06T14:25:57;100119.66;;;8.73;100.00
48352;BME280;34163;49.314;6.752;2024-03-06T14:28:22;100125.00;;;8.71;100.00
48352;BME280;34163;49.314;6.752;2024-03-06T14:30:47;100118.75;;;8.74;100.00
48352;BME280;34163;49.314;6.752;2024-03-06T14:33:15;100122.34;;;8.71;100.00
48352;BME280;34163;49.314;6.752;2024-03-06T14:35:40;100119.66;;;8.73;100.00
48352;BME280;34163;49.314;6.752;2024-03-06T14:38:06;100113.44;;;8.74;100.00
48352;BME280;34163;49.314;6.752;2024-03-06T14:40:31;100117.03;;;8.73;100.00
48352;BME280;34163;49.314;6.752;2024-03-06T14:42:58;100119.56;;;8.76;100.00
48352;BME280;34163;49.314;6.752;2024-03-06T14:45:24;100129.22;;;8.77;100.00
48352;BME280;34163;49.314;6.752;2024-03-06T14:47:49;100130.97;;;8.78;100.00
48352;BME280;34163;49.314;6.752;2024-03-06T14:50:23;100127.41;;;8.79;100.00
48352;BME280;34163;49.314;6.752;2024-03-06T14:52:57;100124.81;;;8.78;100.00
48352;BME280;34163;49.314;6.752;2024-03-06T14:55:23;100120.38;;;8.78;100.00
48352;BME280;34163;49.314;6.752;2024-03-06T14:57:48;100119.50;;;8.79;100.00
48352;BME280;34163;49.314;6.752;2024-03-06T15:00:14;100121.19;;;8.80;100.00
48352;BME280;34163;49.314;6.752;2024-03-06T15:02:42;100119.41;;;8.82;100.00
48352;BME280;34163;49.314;6.752;2024-03-06T15:05:08;100114.97;;;8.83;100.00
48352;BME280;34163;49.314;6.752;2024-03-06T15:07:37;100117.66;;;8.81;100.00
48352;BME280;34163;49.314;6.752;2024-03-06T15:10:06;100115.81;;;8.83;100.00
48352;BME280;34163;49.314;6.752;2024-03-06T15:12:34;100126.41;;;8.83;100.00
48352;BME280;34163;49.314;6.752;2024-03-06T15:15:00;100118.47;;;8.83;100.00
48352;BME280;34163;49.314;6.752;2024-03-06T15:17:25;100125.41;;;8.87;100.00
48352;BME280;34163;49.314;6.752;2024-03-06T15:19:51;100117.53;;;8.86;100.00
48352;BME280;34163;49.314;6.752;2024-03-06T15:22:16;100120.16;;;8.86;100.00
48352;BME280;34163;49.314;6.752;2024-03-06T15:24:41;100127.16;;;8.87;100.00
48352;BME280;34163;49.314;6.752;2024-03-06T15:27:09;100124.50;;;8.87;100.00
48352;BME280;34163;49.314;6.752;2024-03-06T15:29:37;100134.22;;;8.86;100.00
48352;BME280;34163;49.314;6.752;2024-03-06T15:32:03;100127.09;;;8.88;100.00
48352;BME280;34163;49.314;6.752;2024-03-06T15:34:28;100129.75;;;8.88;100.00
48352;BME280;34163;49.314;6.752;2024-03-06T15:36:53;100126.25;;;8.88;100.00
48352;BME280;34163;49.314;6.752;2024-03-06T15:39:19;100129.66;;;8.91;100.00
48352;BME280;34163;49.314;6.752;2024-03-06T15:41:44;100120.94;;;8.89;100.00
48352;BME280;34163;49.314;6.752;2024-03-06T15:44:10;100123.53;;;8.91;100.00
48352;BME280;34163;49.314;6.752;2024-03-06T15:46:35;100125.25;;;8.92;100.00
48352;BME280;34163;49.314;6.752;2024-03-06T15:49:06;100120.84;;;8.93;100.00
48352;BME280;34163;49.314;6.752;2024-03-06T15:51:31;100125.16;;;8.95;100.00
48352;BME280;34163;49.314;6.752;2024-03-06T15:53:57;100122.56;;;8.94;100.00
48352;BME280;34163;49.314;6.752;2024-03-06T15:56:22;100129.56;;;8.95;100.00
48352;BME280;34163;49.314;6.752;2024-03-06T15:58:47;100127.84;;;8.94;100.00
48352;BME280;34163;49.314;6.752;2024-03-06T16:01:13;100133.06;;;8.97;100.00
48352;BME280;34163;49.314;6.752;2024-03-06T16:03:38;100127.84;;;8.94;100.00
48352;BME280;34163;49.314;6.752;2024-03-06T16:06:03;100127.78;;;8.97;100.00
48352;BME280;34163;49.314;6.752;2024-03-06T16:08:31;100127.66;;;9.00;100.00
48352;BME280;34163;49.314;6.752;2024-03-06T16:10:57;100134.75;;;8.98;100.00
48352;BME280;34163;49.314;6.752;2024-03-06T16:13:23;100133.81;;;9.00;100.00
48352;BME280;34163;49.314;6.752;2024-03-06T16:15:51;100138.16;;;9.01;100.00
48352;BME280;34163;49.314;6.752;2024-03-06T16:18:17;100141.75;;;9.00;100.00
48352;BME280;34163;49.314;6.752;2024-03-06T16:20:44;100138.13;;;9.03;100.00
48352;BME280;34163;49.314;6.752;2024-03-06T16:23:10;100144.38;;;9.00;100.00
48352;BME280;34163;49.314;6.752;2024-03-06T16:25:35;100139.97;;;9.01;100.00
48352;BME280;34163;49.314;6.752;2024-03-06T16:28:00;100140.81;;;9.01;100.00
48352;BME280;34163;49.314;6.752;2024-03-06T16:30:26;100148.69;;;9.03;100.00
48352;BME280;34163;49.314;6.752;2024-03-06T16:32:51;100145.16;;;9.04;100.00
48352;BME280;34163;49.314;6.752;2024-03-06T16:35:16;100149.50;;;9.06;100.00
48352;BME280;34163;49.314;6.752;2024-03-06T16:37:42;100146.94;;;9.03;100.00
48352;BME280;34163;49.314;6.752;2024-03-06T16:40:07;100146.91;;;9.05;100.00
48352;BME280;34163;49.314;6.752;2024-03-06T16:42:35;100152.09;;;9.08;100.00
48352;BME280;34163;49.314;6.752;2024-03-06T16:45:01;100153.84;;;9.07;100.00
48352;BME280;34163;49.314;6.752;2024-03-06T16:47:26;100154.72;;;9.08;100.00
48352;BME280;34163;49.314;6.752;2024-03-06T16:49:51;100154.72;;;9.08;100.00
48352;BME280;34163;49.314;6.752;2024-03-06T16:52:17;100158.28;;;9.07;100.00
48352;BME280;34163;49.314;6.752;2024-03-06T16:54:42;100161.69;;;9.11;100.00
48352;BME280;34163;49.314;6.752;2024-03-06T16:57:07;100166.13;;;9.10;100.00
48352;BME280;34163;49.314;6.752;2024-03-06T16:59:35;100168.75;;;9.10;100.00
48352;BME280;34163;49.314;6.752;2024-03-06T17:02:01;100163.38;;;9.13;100.00
48352;BME280;34163;49.314;6.752;2024-03-06T17:04:27;100170.50;;;9.11;100.00
48352;BME280;34163;49.314;6.752;2024-03-06T17:06:52;100164.28;;;9.12;100.00
48352;BME280;34163;49.314;6.752;2024-03-06T17:09:17;100166.03;;;9.13;100.00
48352;BME280;34163;49.314;6.752;2024-03-06T17:11:43;100166.88;;;9.14;100.00
48352;BME280;34163;49.314;6.752;2024-03-06T17:14:08;100169.47;;;9.15;100.00
48352;BME280;34163;49.314;6.752;2024-03-06T17:16:34;100173.91;;;9.15;100.00
48352;BME280;34163;49.314;6.752;2024-03-06T17:18:59;100178.31;;;9.14;100.00
48352;BME280;34163;49.314;6.752;2024-03-06T17:21:27;100177.41;;;9.15;100.00
48352;BME280;34163;49.314;6.752;2024-03-06T17:23:53;100187.97;;;9.15;100.00
48352;BME280;34163;49.314;6.752;2024-03-06T17:26:18;100186.19;;;9.16;100.00
48352;BME280;34163;49.314;6.752;2024-03-06T17:28:44;100187.03;;;9.18;100.00
48352;BME280;34163;49.314;6.752;2024-03-06T17:31:11;100194.97;;;9.18;100.00
48352;BME280;34163;49.314;6.752;2024-03-06T17:33:37;100194.06;;;9.17;100.00
48352;BME280;34163;49.314;6.752;2024-03-06T17:36:02;100193.13;;;9.20;100.00
48352;BME280;34163;49.314;6.752;2024-03-06T17:38:27;100196.69;;;9.19;100.00
48352;BME280;34163;49.314;6.752;2024-03-06T17:40:54;100194.91;;;9.19;100.00
48352;BME280;34163;49.314;6.752;2024-03-06T17:43:19;100196.63;;;9.20;100.00
48352;BME280;34163;49.314;6.752;2024-03-06T17:45:45;100195.72;;;9.21;100.00
48352;BME280;34163;49.314;6.752;2024-03-06T17:48:10;100201.06;;;9.20;100.00
48352;BME280;34163;49.314;6.752;2024-03-06T17:50:35;100201.03;;;9.21;100.00
48352;BME280;34163;49.314;6.752;2024-03-06T17:53:04;100199.28;;;9.20;100.00
48352;BME280;34163;49.314;6.752;2024-03-06T17:55:34;100204.47;;;9.23;100.00
48352;BME280;34163;49.314;6.752;2024-03-06T17:58:02;100200.13;;;9.22;100.00
48352;BME280;34163;49.314;6.752;2024-03-06T18:00:27;100199.19;;;9.23;100.00
48352;BME280;34163;49.314;6.752;2024-03-06T18:02:52;100205.34;;;9.24;100.00
48352;BME280;34163;49.314;6.752;2024-03-06T18:05:20;100200.94;;;9.24;100.00
48352;BME280;34163;49.314;6.752;2024-03-06T18:07:46;100202.72;;;9.24;100.00
48352;BME280;34163;49.314;6.752;2024-03-06T18:10:11;100211.47;;;9.26;100.00
48352;BME280;34163;49.314;6.752;2024-03-06T18:12:39;100207.97;;;9.25;100.00
48352;BME280;34163;49.314;6.752;2024-03-06T18:15:05;100210.50;;;9.29;100.00
48352;BME280;34163;49.314;6.752;2024-03-06T18:17:30;100210.50;;;9.29;100.00
48352;BME280;34163;49.314;6.752;2024-03-06T18:19:56;100209.56;;;9.30;100.00
48352;BME280;34163;49.314;6.752;2024-03-06T18:22:21;100204.28;;;9.30;100.00
48352;BME280;34163;49.314;6.752;2024-03-06T18:24:46;100213.03;;;9.32;100.00
48352;BME280;34163;49.314;6.752;2024-03-06T18:27:12;100205.09;;;9.32;100.00
48352;BME280;34163;49.314;6.752;2024-03-06T18:29:44;100208.59;;;9.34;100.00
48352;BME280;34163;49.314;6.752;2024-03-06T18:32:12;100218.28;;;9.33;100.00
48352;BME280;34163;49.314;6.752;2024-03-06T18:34:40;100200.66;;;9.34;100.00
48352;BME280;34163;49.314;6.752;2024-03-06T18:37:16;100207.69;;;9.33;100.00
48352;BME280;34163;49.314;6.752;2024-03-06T18:39:41;100212.94;;;9.35;100.00
48352;BME280;34163;49.314;6.752;2024-03-06T18:42:09;100215.59;;;9.35;100.00
48352;BME280;34163;49.314;6.752;2024-03-06T18:44:37;100215.59;;;9.35;100.00
48352;BME280;34163;49.314;6.752;2024-03-06T18:47:04;100214.69;;;9.36;100.00
48352;BME280;34163;49.314;6.752;2024-03-06T18:49:43;100212.84;;;9.38;100.00
48352;BME280;34163;49.314;6.752;2024-03-06T18:52:13;100208.44;;;9.38;100.00
48352;BME280;34163;49.314;6.752;2024-03-06T18:54:39;100216.38;;;9.38;100.00
48352;BME280;34163;49.314;6.752;2024-03-06T18:57:07;100209.28;;;9.39;100.00
48352;BME280;34163;49.314;6.752;2024-03-06T18:59:33;100212.75;;;9.41;100.00
48352;BME280;34163;49.314;6.752;2024-03-06T19:02:05;100211.03;;;9.40;100.00
48352;BME280;34163;49.314;6.752;2024-03-06T19:04:31;100209.19;;;9.42;100.00
48352;BME280;34163;49.314;6.752;2024-03-06T19:06:59;100211.03;;;9.40;100.00
48352;BME280;34163;49.314;6.752;2024-03-06T19:09:24;100215.41;;;9.41;100.00
48352;BME280;34163;49.314;6.752;2024-03-06T19:11:49;100215.41;;;9.41;100.00
48352;BME280;34163;49.314;6.752;2024-03-06T19:14:17;100210.94;;;9.43;100.00
48352;BME280;34163;49.314;6.752;2024-03-06T19:16:42;100219.69;;;9.45;100.00
48352;BME280;34163;49.314;6.752;2024-03-06T19:19:08;100221.47;;;9.44;100.00
48352;BME280;34163;49.314;6.752;2024-03-06T19:21:33;100221.47;;;9.44;100.00
48352;BME280;34163;49.314;6.752;2024-03-06T19:24:01;100217.84;;;9.47;100.00
48352;BME280;34163;49.314;6.752;2024-03-06T19:26:28;100216.09;;;9.46;100.00
48352;BME280;34163;49.314;6.752;2024-03-06T19:28:54;100217.03;;;9.45;100.00
48352;BME280;34163;49.314;6.752;2024-03-06T19:31:19;100209.91;;;9.47;100.00
48352;BME280;34163;49.314;6.752;2024-03-06T19:33:44;100217.84;;;9.47;100.00
48352;BME280;34163;49.314;6.752;2024-03-06T19:36:09;100216.00;;;9.49;100.00
48352;BME280;34163;49.314;6.752;2024-03-06T19:38:37;100216.91;;;9.50;100.00
48352;BME280;34163;49.314;6.752;2024-03-06T19:41:03;100216.84;;;9.51;100.00
48352;BME280;34163;49.314;6.752;2024-03-06T19:43:32;100216.00;;;9.49;100.00
48352;BME280;34163;49.314;6.752;2024-03-06T19:46:09;100215.13;;;9.50;100.00
48352;BME280;34163;49.314;6.752;2024-03-06T19:48:35;100223.94;;;9.49;100.00
48352;BME280;34163;49.314;6.752;2024-03-06T19:51:04;100218.63;;;9.51;100.00
48352;BME280;34163;49.314;6.752;2024-03-06T19:53:33;100209.81;;;9.50;100.00
48352;BME280;34163;49.314;6.752;2024-03-06T19:56:03;100209.78;;;9.52;100.00
48352;BME280;34163;49.314;6.752;2024-03-06T19:58:29;100220.34;;;9.52;100.00
48352;BME280;34163;49.314;6.752;2024-03-06T20:00:54;100214.22;;;9.51;100.00
48352;BME280;34163;49.314;6.752;2024-03-06T20:03:19;100211.53;;;9.53;100.00